Thor, South Carolina
Current Conditions -  °F | °C
As of 10:27 AM on Wednesday 26 Nov 2014 (Local Time) from KCAE Reporting Station
Overcast Overcast  
Wind Chill: 50°   Ceiling: 1200
Heat Index: 50°   Visibility: 10mi
Dew Point: 46°   Wind: 8mph
Humidity: 86%   Direction: 320°NW
Pressure: 30.02"   Gusts: NA
Location:  33.7682°N, 81.2599°W
Report Text: KCAE 261527Z 32007KT 10SM BKN012 BKN020 OVC075 10/08 A3002 RMK AO2 RAE14 P0000 T01000078
Loading
Personal Weather Stations






























Interactive Weather Map New forecast layout! Learn more

10-Day Weather Forecast

Advertisements
Track Severe Weather on mobile